Griffin, North Dakota
Current Conditions -  °F | °C
As of 10:53 PM on Friday 28 Nov 2014 (Local Time) from KHEI Reporting Station
Clear Clear  
Wind Chill: 37°   Ceiling: Unl
Heat Index: 42°   Visibility: 10mi
Dew Point: 30°   Wind: 8mph
Humidity: 62%   Direction: 240°WSW
Pressure: 29.39"   Gusts: NA
Location:  46.1126°N, 103.431°W
Report Text: KHEI 290553Z AUTO 24007KT 10SM CLR 06/M01 A2939 RMK AO2 SLP965 T00561011 10072 20039 57012
Loading
Personal Weather Stations






























Interactive Weather Map New forecast layout! Learn more

10-Day Weather Forecast

Advertisements
Track Severe Weather on mobile